Time;durP1;ratioP1;P1;durP2;ratioP2;P2;SDS_P1;SDS_P2;PMS_P1;PMS_P2;Temp;Humidity;BMP_temperature;BMP_pressure;BME280_temperature;BME280_humidity;BME280_pressure;Samples;Min_cycle;Max_cycle;Signal;HPM_P1;HPM_P2
2022/07/27 00:00:47;;;;;;;11.48;6.32;;;;;;;;;;10194976;28;20088;-59
2022/07/27 00:05:45;;;;;;;6.75;6.10;;;;;;;;;;10196247;28;20077;-58
2022/07/27 00:10:44;;;;;;;6.53;5.93;;;;;;;;;;10196402;28;20077;-58
2022/07/27 00:15:42;;;;;;;6.63;6.03;;;;;;;;;;10195820;28;20069;-59
2022/07/27 00:20:42;;;;;;;8.98;7.13;;;;;;;;;;10194867;28;20085;-59
2022/07/27 00:25:40;;;;;;;7.07;6.20;;;;;;;;;;10195615;28;20077;-58
2022/07/27 00:30:39;;;;;;;7.13;6.47;;;;;;;;;;10194042;28;20045;-59
2022/07/27 00:35:37;;;;;;;6.78;6.28;;;;;;;;;;10195236;28;20451;-59
2022/07/27 00:40:37;;;;;;;6.55;5.90;;;;;;;;;;10194866;28;20089;-58
2022/07/27 00:45:35;;;;;;;6.07;5.50;;;;;;;;;;10194056;28;20108;-58
2022/07/27 00:50:34;;;;;;;7.25;5.78;;;;;;;;;;10194708;28;20415;-58
2022/07/27 00:55:33;;;;;;;5.93;5.43;;;;;;;;;;10193853;28;20050;-58
2022/07/27 01:00:33;;;;;;;6.10;5.60;;;;;;;;;;10194407;28;20092;-58
2022/07/27 01:05:31;;;;;;;6.97;6.13;;;;;;;;;;10194259;28;20122;-59
2022/07/27 01:10:35;;;;;;;6.57;5.97;;;;;;;;;;10194351;28;20049;-59
2022/07/27 01:15:35;;;;;;;7.55;6.10;;;;;;;;;;10194148;28;20065;-58
2022/07/27 01:20:36;;;;;;;6.22;5.65;;;;;;;;;;10193164;28;20531;-59
2022/07/27 01:25:35;;;;;;;6.60;6.00;;;;;;;;;;10193733;28;20529;-58
2022/07/27 01:30:34;;;;;;;9.82;5.82;;;;;;;;;;10193698;28;20082;-58
2022/07/27 01:35:32;;;;;;;5.55;5.05;;;;;;;;;;10193529;28;20078;-59
2022/07/27 01:40:31;;;;;;;6.97;6.38;;;;;;;;;;10192770;28;20085;-59
2022/07/27 01:45:31;;;;;;;7.03;6.43;;;;;;;;;;10190699;28;20066;-60
2022/07/27 01:50:29;;;;;;;6.53;5.97;;;;;;;;;;10189348;28;20092;-60
2022/07/27 01:55:27;;;;;;;11.35;5.40;;;;;;;;;;10190009;28;20147;-59
2022/07/27 02:00:37;;;;;;;6.15;5.63;;;;;;;;;;10191140;28;20495;-60
2022/07/27 02:05:37;;;;;;;9.55;6.22;;;;;;;;;;10191448;28;20069;-60
2022/07/27 02:10:36;;;;;;;5.93;5.43;;;;;;;;;;10196856;28;20462;-60
2022/07/27 02:15:34;;;;;;;6.95;6.13;;;;;;;;;;10196542;28;20065;-60
2022/07/27 02:20:43;;;;;;;6.53;5.78;;;;;;;;;;10198926;28;20093;-60
2022/07/27 02:25:41;;;;;;;10.85;5.60;;;;;;;;;;10198034;28;20084;-60
2022/07/27 02:30:39;;;;;;;6.00;5.30;;;;;;;;;;10199639;28;20337;-60
2022/07/27 02:35:38;;;;;;;6.72;6.13;;;;;;;;;;10199865;28;20046;-60
2022/07/27 02:40:38;;;;;;;6.13;5.63;;;;;;;;;;10198900;28;20085;-59
2022/07/27 02:45:36;;;;;;;6.60;6.00;;;;;;;;;;10198965;28;20038;-59
2022/07/27 02:50:34;;;;;;;9.07;6.45;;;;;;;;;;10198307;28;20070;-60
2022/07/27 02:55:33;;;;;;;6.00;5.50;;;;;;;;;;10198666;28;20073;-60
2022/07/27 03:00:32;;;;;;;10.05;5.88;;;;;;;;;;10198533;28;20206;-60
2022/07/27 03:05:32;;;;;;;6.20;5.65;;;;;;;;;;10197194;28;20463;-59
2022/07/27 03:10:30;;;;;;;6.93;6.22;;;;;;;;;;10197273;28;20054;-59
2022/07/27 03:15:29;;;;;;;6.78;6.18;;;;;;;;;;10198098;28;20264;-60
2022/07/27 03:20:29;;;;;;;7.38;6.70;;;;;;;;;;10195333;28;20100;-59
2022/07/27 03:25:27;;;;;;;8.18;7.47;;;;;;;;;;10197512;28;20084;-59
2022/07/27 03:30:25;;;;;;;10.10;9.18;;;;;;;;;;10197635;28;20082;-60
2022/07/27 03:35:24;;;;;;;11.43;10.20;;;;;;;;;;10196963;28;20065;-59
2022/07/27 03:40:23;;;;;;;7.43;6.30;;;;;;;;;;10195355;28;20041;-60
2022/07/27 03:45:22;;;;;;;8.40;7.57;;;;;;;;;;10197347;28;20099;-60
2022/07/27 03:50:20;;;;;;;7.75;6.55;;;;;;;;;;10196217;28;20438;-60
2022/07/27 03:55:19;;;;;;;6.70;6.10;;;;;;;;;;10195751;28;20073;-60
2022/07/27 04:00:19;;;;;;;7.15;6.55;;;;;;;;;;10195236;28;20046;-60
2022/07/27 04:05:17;;;;;;;7.85;7.05;;;;;;;;;;10196370;28;20073;-60
2022/07/27 04:10:17;;;;;;;8.07;7.38;;;;;;;;;;10196134;28;20077;-60
2022/07/27 04:15:17;;;;;;;7.20;6.60;;;;;;;;;;10195508;28;20046;-60
2022/07/27 04:20:17;;;;;;;7.47;6.63;;;;;;;;;;10165648;28;20084;-60
2022/07/27 04:25:15;;;;;;;8.73;6.50;;;;;;;;;;10181826;28;20464;-60
2022/07/27 04:30:14;;;;;;;9.23;6.30;;;;;;;;;;10193628;28;20468;-61
2022/07/27 04:35:12;;;;;;;7.32;5.60;;;;;;;;;;10162952;28;20081;-60
2022/07/27 04:40:12;;;;;;;7.25;6.65;;;;;;;;;;10172289;28;20072;-60
2022/07/27 04:45:11;;;;;;;11.10;6.93;;;;;;;;;;10173595;28;20420;-59
2022/07/27 04:50:10;;;;;;;6.38;5.78;;;;;;;;;;10173269;28;20065;-59
2022/07/27 04:55:08;;;;;;;6.55;5.95;;;;;;;;;;10172630;28;20066;-60
2022/07/27 05:00:10;;;;;;;6.47;5.88;;;;;;;;;;10173071;28;20069;-59
2022/07/27 05:05:08;;;;;;;8.30;6.80;;;;;;;;;;10153081;28;20129;-60
2022/07/27 05:10:07;;;;;;;6.53;5.93;;;;;;;;;;10131943;28;20165;-60
2022/07/27 05:15:06;;;;;;;8.93;5.97;;;;;;;;;;10120799;28;20070;-56
2022/07/27 05:20:07;;;;;;;6.80;6.20;;;;;;;;;;10105736;28;20706;-59
2022/07/27 05:25:06;;;;;;;7.05;6.38;;;;;;;;;;10108422;28;20086;-58
2022/07/27 05:30:05;;;;;;;7.55;6.72;;;;;;;;;;10111805;28;20090;-59
2022/07/27 05:35:03;;;;;;;7.43;6.72;;;;;;;;;;10113868;28;20081;-58
2022/07/27 05:40:04;;;;;;;8.40;7.20;;;;;;;;;;10113962;28;20074;-59
2022/07/27 05:45:03;;;;;;;7.43;6.32;;;;;;;;;;10121462;28;20066;-59
2022/07/27 05:50:01;;;;;;;9.55;7.03;;;;;;;;;;10120983;28;20632;-60
2022/07/27 05:54:59;;;;;;;7.95;7.15;;;;;;;;;;10120272;28;20062;-59
2022/07/27 06:00:00;;;;;;;9.13;7.70;;;;;;;;;;10120953;28;20035;-59
2022/07/27 06:05:08;;;;;;;8.90;6.65;;;;;;;;;;10123198;28;20089;-59
2022/07/27 06:10:12;;;;;;;8.85;7.72;;;;;;;;;;10120875;28;20039;-58
2022/07/27 06:15:13;;;;;;;7.50;6.03;;;;;;;;;;10118509;28;20051;-59
2022/07/27 06:20:12;;;;;;;10.20;7.40;;;;;;;;;;10119941;28;20090;-59
2022/07/27 06:25:11;;;;;;;8.20;7.40;;;;;;;;;;10119851;28;20120;-59
2022/07/27 06:30:09;;;;;;;8.48;7.60;;;;;;;;;;10120558;28;20058;-58
2022/07/27 06:35:09;;;;;;;8.25;7.38;;;;;;;;;;10120538;28;20051;-59
2022/07/27 06:40:10;;;;;;;11.35;7.68;;;;;;;;;;10120302;28;20548;-59
2022/07/27 06:45:09;;;;;;;9.07;8.13;;;;;;;;;;10119855;28;20090;-58
2022/07/27 06:50:11;;;;;;;11.38;8.50;;;;;;;;;;10119896;28;20089;-58
2022/07/27 06:55:09;;;;;;;43.33;12.20;;;;;;;;;;10119196;28;20067;-59
2022/07/27 07:00:08;;;;;;;13.23;8.50;;;;;;;;;;10117531;28;20051;-59
2022/07/27 07:05:07;;;;;;;8.95;8.15;;;;;;;;;;10119022;28;20554;-59
2022/07/27 07:10:07;;;;;;;8.50;7.80;;;;;;;;;;10118821;28;20397;-58
2022/07/27 07:15:06;;;;;;;8.15;7.45;;;;;;;;;;10118317;28;20094;-58
2022/07/27 07:20:05;;;;;;;9.80;7.88;;;;;;;;;;10117420;28;20517;-59
2022/07/27 07:25:04;;;;;;;8.10;7.38;;;;;;;;;;10117689;28;20090;-59
2022/07/27 07:30:04;;;;;;;9.75;8.95;;;;;;;;;;10117322;28;20043;-59
2022/07/27 07:35:03;;;;;;;9.85;8.95;;;;;;;;;;10117590;28;20070;-59
2022/07/27 07:40:02;;;;;;;8.77;7.97;;;;;;;;;;10117038;28;20077;-59
2022/07/27 07:45:22;;;;;;;14.23;8.50;;;;;;;;;;10114906;28;20081;-60
2022/07/27 07:50:21;;;;;;;9.90;8.10;;;;;;;;;;10116779;28;20058;-59
2022/07/27 07:55:20;;;;;;;10.32;7.93;;;;;;;;;;10116527;28;20081;-59
2022/07/27 08:00:19;;;;;;;9.32;7.75;;;;;;;;;;10116223;28;20213;-60
2022/07/27 08:05:19;;;;;;;14.90;8.35;;;;;;;;;;10116029;28;20078;-57
2022/07/27 08:10:19;;;;;;;9.13;8.23;;;;;;;;;;10116558;28;20042;-60
2022/07/27 08:15:18;;;;;;;8.68;7.85;;;;;;;;;;10116107;28;20420;-60
2022/07/27 08:20:17;;;;;;;8.50;7.60;;;;;;;;;;10115436;28;20082;-59
2022/07/27 08:25:16;;;;;;;9.20;7.00;;;;;;;;;;10115413;28;20089;-59
2022/07/27 08:30:15;;;;;;;9.38;7.32;;;;;;;;;;10116020;28;20051;-59
2022/07/27 08:35:15;;;;;;;10.32;7.97;;;;;;;;;;10115550;28;20043;-58
2022/07/27 08:40:14;;;;;;;16.83;7.13;;;;;;;;;;10115993;28;20085;-59
2022/07/27 08:45:34;;;;;;;12.55;7.50;;;;;;;;;;10115242;28;20539;-60
2022/07/27 08:50:34;;;;;;;13.65;6.97;;;;;;;;;;10115350;28;20058;-58
2022/07/27 08:55:33;;;;;;;10.52;6.50;;;;;;;;;;10115467;28;20086;-59
2022/07/27 09:00:32;;;;;;;7.47;6.85;;;;;;;;;;10113386;28;20058;-59
2022/07/27 09:05:33;;;;;;;10.75;7.28;;;;;;;;;;10115642;28;20082;-59
2022/07/27 09:10:37;;;;;;;11.32;7.00;;;;;;;;;;10115130;28;20079;-59
2022/07/27 09:15:44;;;;;;;7.70;6.95;;;;;;;;;;10116853;28;20523;-59
2022/07/27 09:21:11;;;;;;;7.72;6.93;;;;;;;;;;10122262;28;20566;-59
2022/07/27 09:26:10;;;;;;;18.83;6.88;;;;;;;;;;10120611;28;20515;-59
2022/07/27 09:31:28;;;;;;;14.10;7.05;;;;;;;;;;10121419;28;20043;-59
2022/07/27 09:36:29;;;;;;;10.40;6.15;;;;;;;;;;10120867;28;20063;-59
2022/07/27 09:41:27;;;;;;;10.82;6.45;;;;;;;;;;10121312;28;20078;-59
2022/07/27 09:46:30;;;;;;;7.97;6.63;;;;;;;;;;10121170;28;20174;-58
2022/07/27 09:51:31;;;;;;;11.47;7.37;;;;;;;;;;10120644;28;20077;-59
2022/07/27 09:56:57;;;;;;;8.10;6.72;;;;;;;;;;10120587;28;20747;-58
2022/07/27 10:01:56;;;;;;;8.70;6.95;;;;;;;;;;10120506;28;20078;-58
2022/07/27 10:06:56;;;;;;;11.60;6.82;;;;;;;;;;10120774;28;20085;-58
2022/07/27 10:12:03;;;;;;;10.05;6.25;;;;;;;;;;10120175;28;20074;-58
2022/07/27 10:17:02;;;;;;;8.00;6.65;;;;;;;;;;10120446;28;20082;-58
2022/07/27 10:22:02;;;;;;;7.38;5.95;;;;;;;;;;10118975;28;20046;-58
2022/07/27 10:27:17;;;;;;;9.55;5.55;;;;;;;;;;10119953;28;20105;-58
2022/07/27 10:32:23;;;;;;;6.68;5.97;;;;;;;;;;10119376;28;20074;-58
2022/07/27 10:37:26;;;;;;;7.85;6.82;;;;;;;;;;10120182;28;20047;-58
2022/07/27 10:42:26;;;;;;;6.05;5.45;;;;;;;;;;10119692;28;20078;-59
2022/07/27 10:47:29;;;;;;;12.63;6.28;;;;;;;;;;10119110;28;20086;-59
2022/07/27 10:52:41;;;;;;;6.22;5.65;;;;;;;;;;10118936;28;20508;-59
2022/07/27 10:57:39;;;;;;;9.35;6.32;;;;;;;;;;10119772;28;20101;-58
2022/07/27 11:02:39;;;;;;;11.45;5.53;;;;;;;;;;10118697;28;20109;-59
2022/07/27 11:07:43;;;;;;;6.70;6.00;;;;;;;;;;10118332;28;20566;-59
2022/07/27 11:13:04;;;;;;;7.53;5.50;;;;;;;;;;10118796;28;20050;-58
2022/07/27 11:18:07;;;;;;;7.35;6.10;;;;;;;;;;10117248;28;20452;-58
2022/07/27 11:23:17;;;;;;;6.03;5.43;;;;;;;;;;10117871;28;20051;-59
2022/07/27 11:28:37;;;;;;;5.75;5.25;;;;;;;;;;10116500;28;20047;-57
2022/07/27 11:33:36;;;;;;;6.60;5.55;;;;;;;;;;10117899;28;20050;-59
2022/07/27 11:38:44;;;;;;;7.15;5.95;;;;;;;;;;10117860;28;20082;-59
2022/07/27 11:43:44;;;;;;;6.97;5.80;;;;;;;;;;10117727;28;20515;-59
2022/07/27 11:48:47;;;;;;;5.50;5.00;;;;;;;;;;10117541;28;20078;-59
2022/07/27 11:54:04;;;;;;;8.50;6.68;;;;;;;;;;10117414;28;20367;-60
2022/07/27 11:59:05;;;;;;;6.78;6.07;;;;;;;;;;10116898;28;20077;-60
2022/07/27 12:04:04;;;;;;;6.57;5.97;;;;;;;;;;10115897;28;20109;-60
2022/07/27 12:09:03;;;;;;;7.07;6.03;;;;;;;;;;10117434;28;20086;-58
2022/07/27 12:14:10;;;;;;;7.30;6.60;;;;;;;;;;10117372;28;20424;-58
2022/07/27 12:19:10;;;;;;;6.20;5.55;;;;;;;;;;10115844;28;20093;-60
2022/07/27 12:24:09;;;;;;;6.50;5.90;;;;;;;;;;10116302;28;20085;-58
2022/07/27 12:29:08;;;;;;;6.65;6.03;;;;;;;;;;10115403;28;20054;-60
2022/07/27 12:34:07;;;;;;;7.55;6.93;;;;;;;;;;10116075;28;20085;-60
2022/07/27 12:39:08;;;;;;;6.63;6.13;;;;;;;;;;10116030;28;20078;-59
2022/07/27 12:44:07;;;;;;;9.70;6.28;;;;;;;;;;10115514;28;20410;-59
2022/07/27 12:49:14;;;;;;;6.55;5.88;;;;;;;;;;10115407;28;20101;-60
2022/07/27 12:54:15;;;;;;;7.18;6.57;;;;;;;;;;10114983;28;20286;-59
2022/07/27 12:59:13;;;;;;;8.07;6.82;;;;;;;;;;10115480;28;20047;-60
2022/07/27 13:04:12;;;;;;;9.10;8.20;;;;;;;;;;10115679;28;20078;-59
2022/07/27 13:09:10;;;;;;;7.22;6.63;;;;;;;;;;10115414;28;20542;-60
2022/07/27 13:14:11;;;;;;;6.90;6.20;;;;;;;;;;10114882;28;20043;-60
2022/07/27 13:19:10;;;;;;;9.75;5.85;;;;;;;;;;10114562;28;20137;-61
2022/07/27 13:24:09;;;;;;;6.93;6.25;;;;;;;;;;10114487;28;20083;-59
2022/07/27 13:29:07;;;;;;;7.60;5.50;;;;;;;;;;10113367;28;20106;-60
2022/07/27 13:34:07;;;;;;;5.93;5.53;;;;;;;;;;10114427;28;20083;-60
2022/07/27 13:39:06;;;;;;;8.45;6.10;;;;;;;;;;10114643;28;20086;-60
2022/07/27 13:44:05;;;;;;;6.10;5.60;;;;;;;;;;10113590;28;20079;-60
2022/07/27 13:49:03;;;;;;;10.38;6.07;;;;;;;;;;10114280;28;20046;-58
2022/07/27 13:54:03;;;;;;;6.72;6.13;;;;;;;;;;10113942;28;20077;-60
2022/07/27 13:59:03;;;;;;;8.73;6.47;;;;;;;;;;10113309;28;20062;-60
2022/07/27 14:04:04;;;;;;;6.75;6.15;;;;;;;;;;10118940;28;20082;-59
2022/07/27 14:09:04;;;;;;;10.75;9.75;;;;;;;;;;10121193;28;20111;-59
2022/07/27 14:14:03;;;;;;;9.95;6.00;;;;;;;;;;10120695;28;20093;-59
2022/07/27 14:19:02;;;;;;;6.50;5.90;;;;;;;;;;10119883;28;20090;-59
2022/07/27 14:24:01;;;;;;;7.60;6.60;;;;;;;;;;10120450;28;20078;-59
2022/07/27 14:29:00;;;;;;;8.20;6.00;;;;;;;;;;10120578;28;20078;-60
2022/07/27 14:33:59;;;;;;;7.65;6.53;;;;;;;;;;10120998;28;20038;-59
2022/07/27 14:38:57;;;;;;;6.85;5.93;;;;;;;;;;10120423;28;20054;-59
2022/07/27 14:43:55;;;;;;;9.98;6.75;;;;;;;;;;10119827;28;20086;-59
2022/07/27 14:48:55;;;;;;;7.55;5.80;;;;;;;;;;10119722;28;20480;-59
2022/07/27 14:54:04;;;;;;;6.28;5.75;;;;;;;;;;10119787;28;20046;-59
2022/07/27 14:59:02;;;;;;;6.43;5.93;;;;;;;;;;10118537;28;20066;-60
2022/07/27 15:04:02;;;;;;;6.22;5.63;;;;;;;;;;10118883;28;20055;-60
2022/07/27 15:09:00;;;;;;;8.77;6.40;;;;;;;;;;10118335;28;20066;-60
2022/07/27 15:13:58;;;;;;;6.47;5.88;;;;;;;;;;10117100;28;20485;-59
2022/07/27 15:18:57;;;;;;;10.85;9.02;;;;;;;;;;10117986;28;20078;-59
2022/07/27 15:23:56;;;;;;;9.98;6.72;;;;;;;;;;10117433;28;20049;-60
2022/07/27 15:28:55;;;;;;;6.93;6.20;;;;;;;;;;10118164;28;20089;-60
2022/07/27 15:33:53;;;;;;;6.45;5.85;;;;;;;;;;10118126;28;20519;-59
2022/07/27 15:38:52;;;;;;;7.65;6.75;;;;;;;;;;10117303;28;20058;-60
2022/07/27 15:43:51;;;;;;;6.55;5.95;;;;;;;;;;10117172;28;20073;-60
2022/07/27 15:48:50;;;;;;;11.18;10.10;;;;;;;;;;10117404;28;20081;-60
2022/07/27 15:53:48;;;;;;;9.43;6.35;;;;;;;;;;10116730;28;20507;-59
2022/07/27 15:58:47;;;;;;;10.00;6.07;;;;;;;;;;10115684;28;20051;-58
2022/07/27 16:03:46;;;;;;;12.35;8.20;;;;;;;;;;10116622;28;20082;-59
2022/07/27 16:08:45;;;;;;;8.52;5.97;;;;;;;;;;10116700;28;20078;-59
2022/07/27 16:13:44;;;;;;;6.13;5.28;;;;;;;;;;10116329;28;20074;-59
2022/07/27 16:18:42;;;;;;;8.73;6.18;;;;;;;;;;10116461;28;20395;-58
2022/07/27 16:23:42;;;;;;;7.13;6.50;;;;;;;;;;10115751;28;20090;-59
2022/07/27 16:28:42;;;;;;;8.25;6.97;;;;;;;;;;10115789;28;20084;-58
2022/07/27 16:33:41;;;;;;;7.40;6.80;;;;;;;;;;10116024;28;20054;-59
2022/07/27 16:38:40;;;;;;;7.68;6.97;;;;;;;;;;10116025;28;20081;-59
2022/07/27 16:43:49;;;;;;;10.52;8.68;;;;;;;;;;10116164;28;20087;-59
2022/07/27 16:48:47;;;;;;;10.73;6.00;;;;;;;;;;10114175;28;20078;-58
2022/07/27 16:53:47;;;;;;;9.95;6.03;;;;;;;;;;10115337;28;20051;-60
2022/07/27 16:58:45;;;;;;;10.90;6.30;;;;;;;;;;10115365;28;20252;-58
2022/07/27 17:03:47;;;;;;;12.60;9.48;;;;;;;;;;10114523;28;20535;-58
2022/07/27 17:08:45;;;;;;;13.80;10.63;;;;;;;;;;10115006;28;20093;-59
2022/07/27 17:13:43;;;;;;;8.07;6.97;;;;;;;;;;10114559;28;20353;-57
2022/07/27 17:18:47;;;;;;;13.05;9.15;;;;;;;;;;10114149;28;20061;-58
2022/07/27 17:23:46;;;;;;;9.70;7.85;;;;;;;;;;10113941;28;20058;-58
2022/07/27 17:28:44;;;;;;;10.65;8.57;;;;;;;;;;10114234;28;20075;-58
2022/07/27 17:33:42;;;;;;;12.85;9.02;;;;;;;;;;10114119;28;20077;-57
2022/07/27 17:38:42;;;;;;;13.13;9.77;;;;;;;;;;10118929;28;20057;-59
2022/07/27 17:43:41;;;;;;;10.70;9.68;;;;;;;;;;10121993;28;20467;-60
2022/07/27 17:48:39;;;;;;;9.50;8.65;;;;;;;;;;10122304;28;20494;-60
2022/07/27 17:53:38;;;;;;;18.10;7.10;;;;;;;;;;10121929;28;20054;-59
2022/07/27 17:58:37;;;;;;;7.93;6.80;;;;;;;;;;10121950;28;20058;-59
2022/07/27 18:03:36;;;;;;;9.57;6.82;;;;;;;;;;10120998;28;20062;-58
2022/07/27 18:08:35;;;;;;;7.38;6.65;;;;;;;;;;10120191;28;20074;-59
2022/07/27 18:13:33;;;;;;;8.27;6.30;;;;;;;;;;10120361;28;20448;-58
2022/07/27 18:18:39;;;;;;;8.82;6.82;;;;;;;;;;10120445;28;20073;-59
2022/07/27 18:23:37;;;;;;;14.98;7.57;;;;;;;;;;10120624;28;20412;-58
2022/07/27 18:28:36;;;;;;;23.85;9.55;;;;;;;;;;10120032;28;20074;-58
2022/07/27 18:33:39;;;;;;;17.35;6.40;;;;;;;;;;10119856;28;20066;-57
2022/07/27 18:38:39;;;;;;;6.93;5.50;;;;;;;;;;10120063;28;20515;-57
2022/07/27 18:43:37;;;;;;;8.48;5.57;;;;;;;;;;10118657;28;20086;-57
2022/07/27 18:48:36;;;;;;;11.98;5.75;;;;;;;;;;10118934;28;20074;-56
2022/07/27 18:53:34;;;;;;;9.38;5.43;;;;;;;;;;10119746;28;20074;-57
2022/07/27 18:58:34;;;;;;;10.40;5.50;;;;;;;;;;10118908;28;20085;-57
2022/07/27 19:03:32;;;;;;;8.60;5.45;;;;;;;;;;10119395;28;20496;-57
2022/07/27 19:08:31;;;;;;;7.10;5.38;;;;;;;;;;10118534;28;20078;-57
2022/07/27 19:13:29;;;;;;;8.02;5.05;;;;;;;;;;10118557;28;20078;-57
2022/07/27 19:18:29;;;;;;;6.43;5.10;;;;;;;;;;10118645;28;20089;-57
2022/07/27 19:23:27;;;;;;;11.30;5.50;;;;;;;;;;10117910;28;20054;-58
2022/07/27 19:28:26;;;;;;;11.65;5.85;;;;;;;;;;10118117;28;20086;-58
2022/07/27 19:33:24;;;;;;;8.05;5.82;;;;;;;;;;10118088;28;20051;-57
2022/07/27 19:38:24;;;;;;;19.95;7.43;;;;;;;;;;10117345;28;20524;-57
2022/07/27 19:43:23;;;;;;;13.45;6.45;;;;;;;;;;10117462;28;20090;-57
2022/07/27 19:48:23;;;;;;;13.80;6.15;;;;;;;;;;10117360;28;20101;-59
2022/07/27 19:53:21;;;;;;;9.20;5.90;;;;;;;;;;10115855;28;20046;-59
2022/07/27 19:58:21;;;;;;;7.15;5.93;;;;;;;;;;10116268;28;20049;-59
2022/07/27 20:03:21;;;;;;;8.13;5.50;;;;;;;;;;10116323;28;20085;-57
2022/07/27 20:08:20;;;;;;;16.00;6.18;;;;;;;;;;10116828;28;20086;-59
2022/07/27 20:13:18;;;;;;;9.13;5.90;;;;;;;;;;10116423;28;20042;-57
2022/07/27 20:18:19;;;;;;;11.45;5.45;;;;;;;;;;10115239;28;20055;-57
2022/07/27 20:23:17;;;;;;;10.52;5.20;;;;;;;;;;10116370;28;20074;-57
2022/07/27 20:28:16;;;;;;;8.50;5.40;;;;;;;;;;10115403;28;20075;-57
2022/07/27 20:33:18;;;;;;;7.10;5.13;;;;;;;;;;10116137;28;20085;-57
2022/07/27 20:38:18;;;;;;;8.63;5.73;;;;;;;;;;10115660;28;20408;-57
2022/07/27 20:43:16;;;;;;;10.48;5.18;;;;;;;;;;10114717;28;20043;-56
2022/07/27 20:48:14;;;;;;;9.98;6.25;;;;;;;;;;10114903;28;20504;-57
2022/07/27 20:53:12;;;;;;;10.57;6.35;;;;;;;;;;10114897;28;20416;-58
2022/07/27 20:58:12;;;;;;;9.80;6.32;;;;;;;;;;10115278;28;20050;-56
2022/07/27 21:03:10;;;;;;;6.22;5.63;;;;;;;;;;10114260;28;20507;-57
2022/07/27 21:08:09;;;;;;;7.57;5.85;;;;;;;;;;10114785;28;20460;-57
2022/07/27 21:13:07;;;;;;;7.40;5.80;;;;;;;;;;10114519;28;20047;-59
2022/07/27 21:18:07;;;;;;;11.90;6.70;;;;;;;;;;10114369;28;20090;-55
2022/07/27 21:28:23;;;;;;;7.55;5.80;;;;;;;;;;10113694;28;20108;-57
2022/07/27 21:33:23;;;;;;;5.80;5.22;;;;;;;;;;10113809;28;20444;-58
2022/07/27 21:38:22;;;;;;;11.52;6.95;;;;;;;;;;10114066;28;20535;-58
2022/07/27 21:43:20;;;;;;;11.25;5.82;;;;;;;;;;10113967;28;20050;-58
2022/07/27 21:48:18;;;;;;;6.70;5.72;;;;;;;;;;10113824;28;20082;-57
2022/07/27 21:53:18;;;;;;;10.43;6.07;;;;;;;;;;10114358;28;20055;-58
2022/07/27 21:58:16;;;;;;;5.70;5.20;;;;;;;;;;10113911;28;20514;-57
2022/07/27 22:03:15;;;;;;;9.52;6.72;;;;;;;;;;10113709;28;20071;-57
2022/07/27 22:08:14;;;;;;;10.05;7.20;;;;;;;;;;10113503;28;20086;-58
2022/07/27 22:13:13;;;;;;;9.70;6.47;;;;;;;;;;10113528;28;20074;-58
2022/07/27 22:18:12;;;;;;;12.20;6.85;;;;;;;;;;10113192;28;20081;-58
2022/07/27 22:23:10;;;;;;;11.68;6.05;;;;;;;;;;10116424;28;20062;-57
2022/07/27 22:28:08;;;;;;;10.18;7.03;;;;;;;;;;10119957;28;20078;-58
2022/07/27 22:33:08;;;;;;;8.25;6.55;;;;;;;;;;10120112;28;20070;-59
2022/07/27 22:38:06;;;;;;;7.82;6.25;;;;;;;;;;10159962;28;20069;-58
2022/07/27 22:43:05;;;;;;;10.40;6.40;;;;;;;;;;10177689;28;20058;-59
2022/07/27 22:48:03;;;;;;;7.30;6.40;;;;;;;;;;10163060;28;20112;-58
2022/07/27 22:53:03;;;;;;;7.55;6.75;;;;;;;;;;10158201;28;20112;-58
2022/07/27 22:58:02;;;;;;;7.75;6.28;;;;;;;;;;10158497;28;20086;-58
2022/07/27 23:03:00;;;;;;;10.35;6.80;;;;;;;;;;10158076;28;20089;-59
2022/07/27 23:07:59;;;;;;;7.65;6.50;;;;;;;;;;10158226;28;20078;-58
2022/07/27 23:12:58;;;;;;;10.68;6.50;;;;;;;;;;10158136;28;20081;-58
2022/07/27 23:17:57;;;;;;;10.80;6.88;;;;;;;;;;10158137;28;20058;-58
2022/07/27 23:22:55;;;;;;;7.53;6.00;;;;;;;;;;10158250;28;20050;-57
2022/07/27 23:27:54;;;;;;;11.23;5.85;;;;;;;;;;10157319;28;20077;-59
2022/07/27 23:32:55;;;;;;;7.80;6.15;;;;;;;;;;10156554;28;20074;-63
2022/07/27 23:37:53;;;;;;;7.18;6.53;;;;;;;;;;10156800;28;20042;-57
2022/07/27 23:42:51;;;;;;;6.43;5.72;;;;;;;;;;10157228;28;20104;-56
2022/07/27 23:47:50;;;;;;;11.25;6.28;;;;;;;;;;10157198;28;20085;-56
2022/07/27 23:52:49;;;;;;;7.00;5.85;;;;;;;;;;10157354;28;20055;-57
2022/07/27 23:57:48;;;;;;;8.35;5.82;;;;;;;;;;10156484;28;20053;-57
